sensor_id;sensor_type;location;lat;lon;timestamp;P1;durP1;ratioP1;P2;durP2;ratioP2
64297;SDS011;50639;53.270;7.956;2022-12-22T00:00:11;25.48;;;19.63;;
64297;SDS011;50639;53.270;7.956;2022-12-22T00:02:55;27.67;;;20.80;;
64297;SDS011;50639;53.270;7.956;2022-12-22T00:05:39;30.15;;;21.75;;
64297;SDS011;50639;53.270;7.956;2022-12-22T00:08:23;34.25;;;23.30;;
64297;SDS011;50639;53.270;7.956;2022-12-22T00:11:10;31.83;;;23.15;;
64297;SDS011;50639;53.270;7.956;2022-12-22T00:13:54;31.73;;;22.00;;
64297;SDS011;50639;53.270;7.956;2022-12-22T00:16:39;27.35;;;22.38;;
64297;SDS011;50639;53.270;7.956;2022-12-22T00:19:23;28.33;;;20.77;;
64297;SDS011;50639;53.270;7.956;2022-12-22T00:22:12;27.45;;;21.23;;
64297;SDS011;50639;53.270;7.956;2022-12-22T00:24:55;31.48;;;21.55;;
64297;SDS011;50639;53.270;7.956;2022-12-22T00:27:39;27.20;;;21.00;;
64297;SDS011;50639;53.270;7.956;2022-12-22T00:30:24;25.85;;;20.25;;
64297;SDS011;50639;53.270;7.956;2022-12-22T00:33:08;28.95;;;21.17;;
64297;SDS011;50639;53.270;7.956;2022-12-22T00:35:54;28.17;;;20.23;;
64297;SDS011;50639;53.270;7.956;2022-12-22T00:38:38;27.83;;;21.48;;
64297;SDS011;50639;53.270;7.956;2022-12-22T00:41:22;32.30;;;21.90;;
64297;SDS011;50639;53.270;7.956;2022-12-22T00:44:06;27.48;;;20.25;;
64297;SDS011;50639;53.270;7.956;2022-12-22T00:46:50;25.05;;;20.65;;
64297;SDS011;50639;53.270;7.956;2022-12-22T00:49:34;29.92;;;22.67;;
64297;SDS011;50639;53.270;7.956;2022-12-22T00:52:19;27.42;;;20.75;;
64297;SDS011;50639;53.270;7.956;2022-12-22T00:55:13;28.65;;;21.42;;
64297;SDS011;50639;53.270;7.956;2022-12-22T00:57:57;28.63;;;22.08;;
64297;SDS011;50639;53.270;7.956;2022-12-22T01:00:41;27.75;;;21.10;;
64297;SDS011;50639;53.270;7.956;2022-12-22T01:03:25;23.45;;;18.90;;
64297;SDS011;50639;53.270;7.956;2022-12-22T01:06:09;27.10;;;20.48;;
64297;SDS011;50639;53.270;7.956;2022-12-22T01:08:53;28.45;;;20.42;;
64297;SDS011;50639;53.270;7.956;2022-12-22T01:11:37;22.13;;;17.80;;
64297;SDS011;50639;53.270;7.956;2022-12-22T01:14:21;22.92;;;18.60;;
64297;SDS011;50639;53.270;7.956;2022-12-22T01:17:08;23.55;;;18.70;;
64297;SDS011;50639;53.270;7.956;2022-12-22T01:19:52;24.90;;;18.23;;
64297;SDS011;50639;53.270;7.956;2022-12-22T01:22:36;21.58;;;18.38;;
64297;SDS011;50639;53.270;7.956;2022-12-22T01:25:20;21.15;;;17.13;;
64297;SDS011;50639;53.270;7.956;2022-12-22T01:28:04;21.17;;;18.58;;
64297;SDS011;50639;53.270;7.956;2022-12-22T01:30:48;21.40;;;17.85;;
64297;SDS011;50639;53.270;7.956;2022-12-22T01:33:32;20.63;;;17.52;;
64297;SDS011;50639;53.270;7.956;2022-12-22T01:36:16;19.95;;;17.42;;
64297;SDS011;50639;53.270;7.956;2022-12-22T01:39:00;20.05;;;17.30;;
64297;SDS011;50639;53.270;7.956;2022-12-22T01:41:45;22.90;;;18.30;;
64297;SDS011;50639;53.270;7.956;2022-12-22T01:44:29;24.40;;;17.08;;
64297;SDS011;50639;53.270;7.956;2022-12-22T01:50:10;26.60;;;16.70;;
64297;SDS011;50639;53.270;7.956;2022-12-22T01:52:54;19.17;;;15.88;;
64297;SDS011;50639;53.270;7.956;2022-12-22T01:55:38;19.17;;;15.95;;
64297;SDS011;50639;53.270;7.956;2022-12-22T01:58:26;20.55;;;17.75;;
64297;SDS011;50639;53.270;7.956;2022-12-22T02:01:12;22.88;;;18.33;;
64297;SDS011;50639;53.270;7.956;2022-12-22T02:03:57;26.30;;;19.70;;
64297;SDS011;50639;53.270;7.956;2022-12-22T02:06:41;26.27;;;19.52;;
64297;SDS011;50639;53.270;7.956;2022-12-22T02:09:29;23.95;;;18.63;;
64297;SDS011;50639;53.270;7.956;2022-12-22T02:12:19;22.77;;;17.88;;
64297;SDS011;50639;53.270;7.956;2022-12-22T02:15:12;20.35;;;17.92;;
64297;SDS011;50639;53.270;7.956;2022-12-22T02:18:35;20.45;;;16.75;;
64297;SDS011;50639;53.270;7.956;2022-12-22T02:21:09;21.02;;;17.23;;
64297;SDS011;50639;53.270;7.956;2022-12-22T02:26:43;19.83;;;17.13;;
64297;SDS011;50639;53.270;7.956;2022-12-22T02:29:29;21.58;;;17.02;;
64297;SDS011;50639;53.270;7.956;2022-12-22T02:32:13;22.27;;;17.10;;
64297;SDS011;50639;53.270;7.956;2022-12-22T02:34:57;19.13;;;16.80;;
64297;SDS011;50639;53.270;7.956;2022-12-22T02:37:46;20.25;;;16.58;;
64297;SDS011;50639;53.270;7.956;2022-12-22T02:46:25;20.83;;;17.33;;
64297;SDS011;50639;53.270;7.956;2022-12-22T02:49:19;23.30;;;18.52;;
64297;SDS011;50639;53.270;7.956;2022-12-22T02:52:12;25.83;;;19.13;;
64297;SDS011;50639;53.270;7.956;2022-12-22T02:54:58;24.60;;;18.80;;
64297;SDS011;50639;53.270;7.956;2022-12-22T02:57:42;24.65;;;20.35;;
64297;SDS011;50639;53.270;7.956;2022-12-22T03:00:27;23.08;;;19.33;;
64297;SDS011;50639;53.270;7.956;2022-12-22T03:03:11;26.88;;;19.38;;
64297;SDS011;50639;53.270;7.956;2022-12-22T03:05:54;22.52;;;18.92;;
64297;SDS011;50639;53.270;7.956;2022-12-22T03:08:39;23.45;;;19.25;;
64297;SDS011;50639;53.270;7.956;2022-12-22T03:11:23;23.75;;;18.95;;
64297;SDS011;50639;53.270;7.956;2022-12-22T03:14:07;23.70;;;18.13;;
64297;SDS011;50639;53.270;7.956;2022-12-22T03:16:51;23.55;;;18.23;;
64297;SDS011;50639;53.270;7.956;2022-12-22T03:19:35;23.55;;;17.98;;
64297;SDS011;50639;53.270;7.956;2022-12-22T03:22:19;24.48;;;19.08;;
64297;SDS011;50639;53.270;7.956;2022-12-22T03:25:03;21.23;;;18.35;;
64297;SDS011;50639;53.270;7.956;2022-12-22T03:27:47;26.83;;;19.92;;
64297;SDS011;50639;53.270;7.956;2022-12-22T03:30:13;27.10;;;18.60;;
64297;SDS011;50639;53.270;7.956;2022-12-22T03:32:38;26.33;;;19.08;;
64297;SDS011;50639;53.270;7.956;2022-12-22T03:35:03;26.83;;;19.20;;
64297;SDS011;50639;53.270;7.956;2022-12-22T03:37:29;29.70;;;19.73;;
64297;SDS011;50639;53.270;7.956;2022-12-22T03:39:54;27.52;;;19.83;;
64297;SDS011;50639;53.270;7.956;2022-12-22T03:42:19;29.23;;;19.67;;
64297;SDS011;50639;53.270;7.956;2022-12-22T03:45:04;23.98;;;20.30;;
64297;SDS011;50639;53.270;7.956;2022-12-22T03:47:47;28.88;;;20.63;;
64297;SDS011;50639;53.270;7.956;2022-12-22T03:50:13;28.03;;;20.77;;
64297;SDS011;50639;53.270;7.956;2022-12-22T03:52:38;27.52;;;20.73;;
64297;SDS011;50639;53.270;7.956;2022-12-22T03:55:04;26.13;;;19.35;;
64297;SDS011;50639;53.270;7.956;2022-12-22T03:57:29;30.00;;;21.20;;
64297;SDS011;50639;53.270;7.956;2022-12-22T03:59:54;25.83;;;20.30;;
64297;SDS011;50639;53.270;7.956;2022-12-22T04:02:20;26.77;;;20.85;;
64297;SDS011;50639;53.270;7.956;2022-12-22T04:04:45;26.87;;;21.00;;
64297;SDS011;50639;53.270;7.956;2022-12-22T04:07:10;29.92;;;20.70;;
64297;SDS011;50639;53.270;7.956;2022-12-22T04:09:35;25.30;;;19.33;;
64297;SDS011;50639;53.270;7.956;2022-12-22T04:12:21;25.23;;;19.55;;
64297;SDS011;50639;53.270;7.956;2022-12-22T04:15:05;28.02;;;19.13;;
64297;SDS011;50639;53.270;7.956;2022-12-22T04:17:31;29.08;;;20.65;;
64297;SDS011;50639;53.270;7.956;2022-12-22T04:19:56;24.15;;;20.10;;
64297;SDS011;50639;53.270;7.956;2022-12-22T04:22:21;32.37;;;19.90;;
64297;SDS011;50639;53.270;7.956;2022-12-22T04:24:47;27.55;;;19.42;;
64297;SDS011;50639;53.270;7.956;2022-12-22T04:27:12;22.80;;;19.05;;
64297;SDS011;50639;53.270;7.956;2022-12-22T04:29:37;24.50;;;19.83;;
64297;SDS011;50639;53.270;7.956;2022-12-22T04:32:02;27.33;;;20.13;;
64297;SDS011;50639;53.270;7.956;2022-12-22T04:34:28;23.65;;;19.98;;
64297;SDS011;50639;53.270;7.956;2022-12-22T04:36:53;27.90;;;19.38;;
64297;SDS011;50639;53.270;7.956;2022-12-22T04:39:19;23.58;;;20.33;;
64297;SDS011;50639;53.270;7.956;2022-12-22T04:41:44;27.10;;;18.43;;
64297;SDS011;50639;53.270;7.956;2022-12-22T04:44:09;21.23;;;17.63;;
64297;SDS011;50639;53.270;7.956;2022-12-22T04:46:34;22.48;;;17.35;;
64297;SDS011;50639;53.270;7.956;2022-12-22T04:49:00;24.08;;;18.88;;
64297;SDS011;50639;53.270;7.956;2022-12-22T04:51:25;22.37;;;18.40;;
64297;SDS011;50639;53.270;7.956;2022-12-22T04:53:51;22.17;;;17.40;;
64297;SDS011;50639;53.270;7.956;2022-12-22T04:56:16;24.13;;;19.75;;
64297;SDS011;50639;53.270;7.956;2022-12-22T04:58:42;21.20;;;16.98;;
64297;SDS011;50639;53.270;7.956;2022-12-22T05:01:11;20.15;;;17.85;;
64297;SDS011;50639;53.270;7.956;2022-12-22T05:03:37;20.48;;;16.50;;
64297;SDS011;50639;53.270;7.956;2022-12-22T05:06:02;22.77;;;17.40;;
64297;SDS011;50639;53.270;7.956;2022-12-22T05:08:28;25.55;;;19.65;;
64297;SDS011;50639;53.270;7.956;2022-12-22T05:10:53;22.17;;;19.10;;
64297;SDS011;50639;53.270;7.956;2022-12-22T05:13:19;24.15;;;19.75;;
64297;SDS011;50639;53.270;7.956;2022-12-22T05:15:44;25.05;;;19.27;;
64297;SDS011;50639;53.270;7.956;2022-12-22T05:18:10;25.38;;;19.73;;
64297;SDS011;50639;53.270;7.956;2022-12-22T05:20:37;22.23;;;19.05;;
64297;SDS011;50639;53.270;7.956;2022-12-22T05:23:02;25.55;;;20.70;;
64297;SDS011;50639;53.270;7.956;2022-12-22T05:25:27;26.67;;;20.33;;
64297;SDS011;50639;53.270;7.956;2022-12-22T05:27:53;25.70;;;21.15;;
64297;SDS011;50639;53.270;7.956;2022-12-22T05:30:18;23.63;;;19.70;;
64297;SDS011;50639;53.270;7.956;2022-12-22T05:32:44;26.70;;;20.40;;
64297;SDS011;50639;53.270;7.956;2022-12-22T05:35:10;23.48;;;19.63;;
64297;SDS011;50639;53.270;7.956;2022-12-22T05:37:35;22.50;;;20.08;;
64297;SDS011;50639;53.270;7.956;2022-12-22T05:40:00;27.10;;;19.77;;
64297;SDS011;50639;53.270;7.956;2022-12-22T05:42:26;39.35;;;30.25;;
64297;SDS011;50639;53.270;7.956;2022-12-22T05:45:02;28.40;;;22.30;;
64297;SDS011;50639;53.270;7.956;2022-12-22T05:47:27;23.27;;;19.83;;
64297;SDS011;50639;53.270;7.956;2022-12-22T05:49:52;26.58;;;20.65;;
64297;SDS011;50639;53.270;7.956;2022-12-22T05:52:18;29.70;;;22.73;;
64297;SDS011;50639;53.270;7.956;2022-12-22T05:54:43;26.90;;;21.15;;
64297;SDS011;50639;53.270;7.956;2022-12-22T05:57:08;23.75;;;20.77;;
64297;SDS011;50639;53.270;7.956;2022-12-22T05:59:34;24.90;;;21.13;;
64297;SDS011;50639;53.270;7.956;2022-12-22T06:01:59;30.43;;;22.17;;
64297;SDS011;50639;53.270;7.956;2022-12-22T06:04:24;24.08;;;20.30;;
64297;SDS011;50639;53.270;7.956;2022-12-22T06:06:50;23.73;;;20.90;;
64297;SDS011;50639;53.270;7.956;2022-12-22T06:09:15;25.20;;;21.48;;
64297;SDS011;50639;53.270;7.956;2022-12-22T06:11:40;26.93;;;21.77;;
64297;SDS011;50639;53.270;7.956;2022-12-22T06:14:06;26.20;;;21.88;;
64297;SDS011;50639;53.270;7.956;2022-12-22T06:16:31;24.83;;;20.65;;
64297;SDS011;50639;53.270;7.956;2022-12-22T06:18:56;24.40;;;20.15;;
64297;SDS011;50639;53.270;7.956;2022-12-22T06:21:22;31.73;;;23.92;;
64297;SDS011;50639;53.270;7.956;2022-12-22T06:23:47;31.60;;;23.25;;
64297;SDS011;50639;53.270;7.956;2022-12-22T06:26:12;29.35;;;23.40;;
64297;SDS011;50639;53.270;7.956;2022-12-22T06:28:38;30.63;;;23.90;;
64297;SDS011;50639;53.270;7.956;2022-12-22T06:31:03;32.35;;;25.27;;
64297;SDS011;50639;53.270;7.956;2022-12-22T06:33:28;32.08;;;24.85;;
64297;SDS011;50639;53.270;7.956;2022-12-22T06:35:54;34.38;;;24.38;;
64297;SDS011;50639;53.270;7.956;2022-12-22T06:38:19;34.83;;;24.92;;
64297;SDS011;50639;53.270;7.956;2022-12-22T06:40:45;36.43;;;25.33;;
64297;SDS011;50639;53.270;7.956;2022-12-22T06:43:11;39.33;;;27.05;;
64297;SDS011;50639;53.270;7.956;2022-12-22T06:45:37;36.42;;;26.50;;
64297;SDS011;50639;53.270;7.956;2022-12-22T06:48:03;37.22;;;25.58;;
64297;SDS011;50639;53.270;7.956;2022-12-22T06:50:28;38.53;;;24.17;;
64297;SDS011;50639;53.270;7.956;2022-12-22T06:52:54;34.92;;;25.20;;
64297;SDS011;50639;53.270;7.956;2022-12-22T06:55:19;39.08;;;25.15;;
64297;SDS011;50639;53.270;7.956;2022-12-22T06:57:44;34.53;;;25.45;;
64297;SDS011;50639;53.270;7.956;2022-12-22T07:00:10;34.88;;;24.77;;
64297;SDS011;50639;53.270;7.956;2022-12-22T07:02:41;35.92;;;25.55;;
64297;SDS011;50639;53.270;7.956;2022-12-22T07:05:06;35.25;;;24.42;;
64297;SDS011;50639;53.270;7.956;2022-12-22T07:07:32;36.60;;;25.52;;
64297;SDS011;50639;53.270;7.956;2022-12-22T07:09:57;36.53;;;24.93;;
64297;SDS011;50639;53.270;7.956;2022-12-22T07:12:23;36.17;;;23.77;;
64297;SDS011;50639;53.270;7.956;2022-12-22T07:14:48;38.47;;;26.88;;
64297;SDS011;50639;53.270;7.956;2022-12-22T07:17:13;34.38;;;23.75;;
64297;SDS011;50639;53.270;7.956;2022-12-22T07:19:39;36.70;;;24.92;;
64297;SDS011;50639;53.270;7.956;2022-12-22T07:22:04;38.55;;;25.02;;
64297;SDS011;50639;53.270;7.956;2022-12-22T07:24:30;36.70;;;24.55;;
64297;SDS011;50639;53.270;7.956;2022-12-22T07:26:55;35.40;;;24.77;;
64297;SDS011;50639;53.270;7.956;2022-12-22T07:29:20;37.55;;;25.45;;
64297;SDS011;50639;53.270;7.956;2022-12-22T07:31:46;40.25;;;26.20;;
64297;SDS011;50639;53.270;7.956;2022-12-22T07:34:12;39.58;;;24.25;;
64297;SDS011;50639;53.270;7.956;2022-12-22T07:36:37;39.72;;;26.45;;
64297;SDS011;50639;53.270;7.956;2022-12-22T07:39:02;38.65;;;25.63;;
64297;SDS011;50639;53.270;7.956;2022-12-22T07:41:28;45.13;;;25.83;;
64297;SDS011;50639;53.270;7.956;2022-12-22T07:44:12;38.00;;;24.98;;
64297;SDS011;50639;53.270;7.956;2022-12-22T07:46:37;35.25;;;24.75;;
64297;SDS011;50639;53.270;7.956;2022-12-22T07:49:04;35.70;;;23.58;;
64297;SDS011;50639;53.270;7.956;2022-12-22T07:51:48;39.17;;;24.40;;
64297;SDS011;50639;53.270;7.956;2022-12-22T07:54:14;36.72;;;25.08;;
64297;SDS011;50639;53.270;7.956;2022-12-22T07:56:40;35.97;;;24.85;;
64297;SDS011;50639;53.270;7.956;2022-12-22T07:59:05;40.88;;;25.45;;
64297;SDS011;50639;53.270;7.956;2022-12-22T08:01:31;38.25;;;24.67;;
64297;SDS011;50639;53.270;7.956;2022-12-22T08:03:56;39.55;;;25.08;;
64297;SDS011;50639;53.270;7.956;2022-12-22T08:06:22;43.08;;;26.73;;
64297;SDS011;50639;53.270;7.956;2022-12-22T08:08:48;40.83;;;26.90;;
64297;SDS011;50639;53.270;7.956;2022-12-22T08:11:13;46.80;;;26.45;;
64297;SDS011;50639;53.270;7.956;2022-12-22T08:13:38;41.03;;;26.38;;
64297;SDS011;50639;53.270;7.956;2022-12-22T08:16:04;43.15;;;26.95;;
64297;SDS011;50639;53.270;7.956;2022-12-22T08:18:30;43.72;;;26.40;;
64297;SDS011;50639;53.270;7.956;2022-12-22T08:20:56;43.42;;;27.20;;
64297;SDS011;50639;53.270;7.956;2022-12-22T08:23:21;52.50;;;28.88;;
64297;SDS011;50639;53.270;7.956;2022-12-22T08:25:47;49.60;;;27.98;;
64297;SDS011;50639;53.270;7.956;2022-12-22T08:28:15;48.20;;;27.60;;
64297;SDS011;50639;53.270;7.956;2022-12-22T08:30:42;44.88;;;26.92;;
64297;SDS011;50639;53.270;7.956;2022-12-22T08:33:07;46.17;;;27.50;;
64297;SDS011;50639;53.270;7.956;2022-12-22T08:35:33;43.85;;;27.63;;
64297;SDS011;50639;53.270;7.956;2022-12-22T08:37:58;42.58;;;26.80;;
64297;SDS011;50639;53.270;7.956;2022-12-22T08:40:24;49.75;;;28.48;;
64297;SDS011;50639;53.270;7.956;2022-12-22T08:45:16;46.05;;;25.88;;
64297;SDS011;50639;53.270;7.956;2022-12-22T08:47:42;46.97;;;27.25;;
64297;SDS011;50639;53.270;7.956;2022-12-22T08:50:07;49.35;;;25.63;;
64297;SDS011;50639;53.270;7.956;2022-12-22T08:52:33;41.55;;;25.25;;
64297;SDS011;50639;53.270;7.956;2022-12-22T08:54:58;44.33;;;25.58;;
64297;SDS011;50639;53.270;7.956;2022-12-22T08:57:23;41.65;;;23.95;;
64297;SDS011;50639;53.270;7.956;2022-12-22T08:59:49;43.80;;;24.63;;
64297;SDS011;50639;53.270;7.956;2022-12-22T09:02:14;40.95;;;23.33;;
64297;SDS011;50639;53.270;7.956;2022-12-22T09:04:39;39.92;;;23.27;;
64297;SDS011;50639;53.270;7.956;2022-12-22T09:07:05;42.85;;;23.40;;
64297;SDS011;50639;53.270;7.956;2022-12-22T09:09:31;39.85;;;23.98;;
64297;SDS011;50639;53.270;7.956;2022-12-22T09:11:57;42.22;;;23.83;;
64297;SDS011;50639;53.270;7.956;2022-12-22T09:14:22;40.63;;;23.40;;
64297;SDS011;50639;53.270;7.956;2022-12-22T09:16:48;42.58;;;23.52;;
64297;SDS011;50639;53.270;7.956;2022-12-22T09:19:14;41.95;;;23.60;;
64297;SDS011;50639;53.270;7.956;2022-12-22T09:21:40;47.83;;;24.05;;
64297;SDS011;50639;53.270;7.956;2022-12-22T09:24:05;50.65;;;23.85;;
64297;SDS011;50639;53.270;7.956;2022-12-22T09:26:34;40.88;;;23.30;;
64297;SDS011;50639;53.270;7.956;2022-12-22T09:28:59;42.17;;;22.80;;
64297;SDS011;50639;53.270;7.956;2022-12-22T09:31:24;41.85;;;22.48;;
64297;SDS011;50639;53.270;7.956;2022-12-22T09:33:50;40.67;;;21.45;;
64297;SDS011;50639;53.270;7.956;2022-12-22T09:36:17;41.28;;;22.23;;
64297;SDS011;50639;53.270;7.956;2022-12-22T09:38:42;40.72;;;22.33;;
64297;SDS011;50639;53.270;7.956;2022-12-22T09:43:42;31.98;;;19.92;;
64297;SDS011;50639;53.270;7.956;2022-12-22T09:46:11;28.85;;;19.42;;
64297;SDS011;50639;53.270;7.956;2022-12-22T09:48:40;30.75;;;17.38;;
64297;SDS011;50639;53.270;7.956;2022-12-22T09:51:05;34.20;;;17.25;;
64297;SDS011;50639;53.270;7.956;2022-12-22T09:53:34;32.92;;;16.92;;
64297;SDS011;50639;53.270;7.956;2022-12-22T09:56:00;31.90;;;18.95;;
64297;SDS011;50639;53.270;7.956;2022-12-22T10:00:52;39.57;;;18.70;;
64297;SDS011;50639;53.270;7.956;2022-12-22T10:06:13;32.20;;;18.63;;
64297;SDS011;50639;53.270;7.956;2022-12-22T10:08:37;36.00;;;17.33;;
64297;SDS011;50639;53.270;7.956;2022-12-22T10:11:04;35.03;;;17.48;;
64297;SDS011;50639;53.270;7.956;2022-12-22T10:13:30;35.38;;;18.70;;
64297;SDS011;50639;53.270;7.956;2022-12-22T10:15:56;34.33;;;17.55;;
64297;SDS011;50639;53.270;7.956;2022-12-22T10:18:24;32.17;;;18.20;;
64297;SDS011;50639;53.270;7.956;2022-12-22T10:23:35;36.25;;;19.25;;
64297;SDS011;50639;53.270;7.956;2022-12-22T10:26:05;41.97;;;19.25;;
64297;SDS011;50639;53.270;7.956;2022-12-22T10:28:33;42.50;;;21.42;;
64297;SDS011;50639;53.270;7.956;2022-12-22T10:33:37;47.00;;;22.83;;
64297;SDS011;50639;53.270;7.956;2022-12-22T10:36:03;40.20;;;20.20;;
64297;SDS011;50639;53.270;7.956;2022-12-22T10:38:30;39.42;;;19.77;;
64297;SDS011;50639;53.270;7.956;2022-12-22T10:40:57;42.75;;;20.10;;
64297;SDS011;50639;53.270;7.956;2022-12-22T10:43:26;40.92;;;19.05;;
64297;SDS011;50639;53.270;7.956;2022-12-22T10:45:53;47.88;;;19.98;;
64297;SDS011;50639;53.270;7.956;2022-12-22T10:48:26;41.15;;;19.65;;
64297;SDS011;50639;53.270;7.956;2022-12-22T10:50:52;40.25;;;19.85;;
64297;SDS011;50639;53.270;7.956;2022-12-22T10:53:17;39.60;;;18.58;;
64297;SDS011;50639;53.270;7.956;2022-12-22T10:55:43;33.20;;;17.63;;
64297;SDS011;50639;53.270;7.956;2022-12-22T11:00:35;36.03;;;17.35;;
64297;SDS011;50639;53.270;7.956;2022-12-22T11:03:01;39.47;;;18.40;;
64297;SDS011;50639;53.270;7.956;2022-12-22T11:05:27;30.45;;;15.95;;
64297;SDS011;50639;53.270;7.956;2022-12-22T11:07:53;38.15;;;16.23;;
64297;SDS011;50639;53.270;7.956;2022-12-22T11:10:30;35.67;;;17.25;;
64297;SDS011;50639;53.270;7.956;2022-12-22T11:15:33;35.33;;;15.85;;
64297;SDS011;50639;53.270;7.956;2022-12-22T11:21:00;30.52;;;13.88;;
64297;SDS011;50639;53.270;7.956;2022-12-22T11:25:55;34.10;;;14.47;;
64297;SDS011;50639;53.270;7.956;2022-12-22T11:31:16;28.88;;;13.57;;
64297;SDS011;50639;53.270;7.956;2022-12-22T11:33:56;23.92;;;12.68;;
64297;SDS011;50639;53.270;7.956;2022-12-22T11:39:14;25.92;;;12.05;;
64297;SDS011;50639;53.270;7.956;2022-12-22T11:47:16;26.67;;;12.30;;
64297;SDS011;50639;53.270;7.956;2022-12-22T11:49:42;27.48;;;13.27;;
64297;SDS011;50639;53.270;7.956;2022-12-22T11:52:12;28.48;;;12.15;;
64297;SDS011;50639;53.270;7.956;2022-12-22T11:54:41;24.33;;;10.80;;
64297;SDS011;50639;53.270;7.956;2022-12-22T11:57:17;20.25;;;10.35;;
64297;SDS011;50639;53.270;7.956;2022-12-22T12:07:49;21.67;;;10.90;;
64297;SDS011;50639;53.270;7.956;2022-12-22T12:10:27;30.63;;;12.48;;
64297;SDS011;50639;53.270;7.956;2022-12-22T12:12:59;20.60;;;10.60;;
64297;SDS011;50639;53.270;7.956;2022-12-22T12:15:30;23.70;;;9.23;;
64297;SDS011;50639;53.270;7.956;2022-12-22T12:20:28;17.98;;;8.40;;
64297;SDS011;50639;53.270;7.956;2022-12-22T12:23:07;20.42;;;9.90;;
64297;SDS011;50639;53.270;7.956;2022-12-22T12:25:47;23.95;;;9.68;;
64297;SDS011;50639;53.270;7.956;2022-12-22T12:30:57;22.02;;;9.55;;
64297;SDS011;50639;53.270;7.956;2022-12-22T12:33:30;19.38;;;9.73;;
64297;SDS011;50639;53.270;7.956;2022-12-22T12:36:17;25.85;;;10.00;;
64297;SDS011;50639;53.270;7.956;2022-12-22T12:44:12;21.23;;;7.88;;
64297;SDS011;50639;53.270;7.956;2022-12-22T12:52:05;23.02;;;9.77;;
64297;SDS011;50639;53.270;7.956;2022-12-22T12:57:00;20.57;;;8.77;;
64297;SDS011;50639;53.270;7.956;2022-12-22T13:10:21;18.20;;;7.75;;
64297;SDS011;50639;53.270;7.956;2022-12-22T13:12:50;20.63;;;7.68;;
64297;SDS011;50639;53.270;7.956;2022-12-22T13:17:53;14.27;;;7.15;;
64297;SDS011;50639;53.270;7.956;2022-12-22T13:20:21;18.17;;;8.57;;
64297;SDS011;50639;53.270;7.956;2022-12-22T13:22:50;18.63;;;7.25;;
64297;SDS011;50639;53.270;7.956;2022-12-22T13:25:16;21.23;;;8.15;;
64297;SDS011;50639;53.270;7.956;2022-12-22T13:27:42;16.45;;;8.27;;
64297;SDS011;50639;53.270;7.956;2022-12-22T13:30:11;20.70;;;7.30;;
64297;SDS011;50639;53.270;7.956;2022-12-22T13:32:38;17.95;;;7.68;;
64297;SDS011;50639;53.270;7.956;2022-12-22T13:37:36;22.13;;;8.73;;
64297;SDS011;50639;53.270;7.956;2022-12-22T13:42:33;18.85;;;7.63;;
64297;SDS011;50639;53.270;7.956;2022-12-22T13:44:59;16.25;;;7.20;;
64297;SDS011;50639;53.270;7.956;2022-12-22T13:47:24;20.23;;;7.60;;
64297;SDS011;50639;53.270;7.956;2022-12-22T13:49:51;17.50;;;7.72;;
64297;SDS011;50639;53.270;7.956;2022-12-22T13:52:16;16.67;;;6.57;;
64297;SDS011;50639;53.270;7.956;2022-12-22T13:54:43;15.65;;;6.72;;
64297;SDS011;50639;53.270;7.956;2022-12-22T13:57:19;15.82;;;7.38;;
64297;SDS011;50639;53.270;7.956;2022-12-22T13:59:45;12.27;;;5.93;;
64297;SDS011;50639;53.270;7.956;2022-12-22T14:02:16;13.93;;;6.47;;
64297;SDS011;50639;53.270;7.956;2022-12-22T14:04:43;18.05;;;6.55;;
64297;SDS011;50639;53.270;7.956;2022-12-22T14:07:12;22.17;;;6.90;;
64297;SDS011;50639;53.270;7.956;2022-12-22T14:09:42;17.25;;;7.95;;
64297;SDS011;50639;53.270;7.956;2022-12-22T14:12:10;21.55;;;7.55;;
64297;SDS011;50639;53.270;7.956;2022-12-22T14:14:37;26.15;;;9.35;;
64297;SDS011;50639;53.270;7.956;2022-12-22T14:17:03;18.60;;;6.43;;
64297;SDS011;50639;53.270;7.956;2022-12-22T14:19:31;15.25;;;7.00;;
64297;SDS011;50639;53.270;7.956;2022-12-22T14:22:07;17.15;;;7.20;;
64297;SDS011;50639;53.270;7.956;2022-12-22T14:24:34;18.25;;;7.03;;
64297;SDS011;50639;53.270;7.956;2022-12-22T14:27:05;16.70;;;7.43;;
64297;SDS011;50639;53.270;7.956;2022-12-22T14:29:30;19.02;;;7.30;;
64297;SDS011;50639;53.270;7.956;2022-12-22T14:32:00;15.52;;;6.72;;
64297;SDS011;50639;53.270;7.956;2022-12-22T14:34:29;22.92;;;7.43;;
64297;SDS011;50639;53.270;7.956;2022-12-22T14:36:55;15.40;;;6.50;;
64297;SDS011;50639;53.270;7.956;2022-12-22T14:39:24;16.08;;;6.60;;
64297;SDS011;50639;53.270;7.956;2022-12-22T14:41:54;19.52;;;7.55;;
64297;SDS011;50639;53.270;7.956;2022-12-22T14:49:49;19.00;;;8.20;;
64297;SDS011;50639;53.270;7.956;2022-12-22T14:52:20;19.58;;;7.15;;
64297;SDS011;50639;53.270;7.956;2022-12-22T14:54:50;15.95;;;6.72;;
64297;SDS011;50639;53.270;7.956;2022-12-22T14:57:24;19.88;;;7.20;;
64297;SDS011;50639;53.270;7.956;2022-12-22T14:59:58;19.10;;;6.68;;
64297;SDS011;50639;53.270;7.956;2022-12-22T15:02:26;21.40;;;6.53;;
64297;SDS011;50639;53.270;7.956;2022-12-22T15:05:08;16.05;;;6.32;;
64297;SDS011;50639;53.270;7.956;2022-12-22T15:07:47;28.92;;;6.65;;
64297;SDS011;50639;53.270;7.956;2022-12-22T15:10:13;20.45;;;7.00;;
64297;SDS011;50639;53.270;7.956;2022-12-22T15:12:38;22.45;;;7.55;;
64297;SDS011;50639;53.270;7.956;2022-12-22T15:15:04;17.98;;;8.05;;
64297;SDS011;50639;53.270;7.956;2022-12-22T15:17:38;18.45;;;7.82;;
64297;SDS011;50639;53.270;7.956;2022-12-22T15:20:08;14.85;;;7.20;;
64297;SDS011;50639;53.270;7.956;2022-12-22T15:22:37;18.63;;;7.97;;
64297;SDS011;50639;53.270;7.956;2022-12-22T15:25:05;20.02;;;8.50;;
64297;SDS011;50639;53.270;7.956;2022-12-22T15:27:35;24.48;;;8.80;;
64297;SDS011;50639;53.270;7.956;2022-12-22T15:30:00;26.25;;;10.75;;
64297;SDS011;50639;53.270;7.956;2022-12-22T15:32:26;29.67;;;12.15;;
64297;SDS011;50639;53.270;7.956;2022-12-22T15:34:53;19.70;;;8.23;;
64297;SDS011;50639;53.270;7.956;2022-12-22T15:37:21;18.40;;;9.02;;
64297;SDS011;50639;53.270;7.956;2022-12-22T15:39:49;17.92;;;8.23;;
64297;SDS011;50639;53.270;7.956;2022-12-22T15:42:14;14.43;;;7.63;;
64297;SDS011;50639;53.270;7.956;2022-12-22T15:44:40;18.73;;;8.45;;
64297;SDS011;50639;53.270;7.956;2022-12-22T15:47:07;23.77;;;8.10;;
64297;SDS011;50639;53.270;7.956;2022-12-22T15:51:59;17.55;;;8.63;;
64297;SDS011;50639;53.270;7.956;2022-12-22T15:54:25;27.52;;;9.55;;
64297;SDS011;50639;53.270;7.956;2022-12-22T15:56:52;26.73;;;8.38;;
64297;SDS011;50639;53.270;7.956;2022-12-22T15:59:24;25.80;;;8.95;;
64297;SDS011;50639;53.270;7.956;2022-12-22T16:01:51;22.08;;;8.77;;
64297;SDS011;50639;53.270;7.956;2022-12-22T16:04:16;21.50;;;8.90;;
64297;SDS011;50639;53.270;7.956;2022-12-22T16:06:42;27.25;;;9.30;;
64297;SDS011;50639;53.270;7.956;2022-12-22T16:09:08;27.70;;;9.73;;
64297;SDS011;50639;53.270;7.956;2022-12-22T16:11:37;23.73;;;9.25;;
64297;SDS011;50639;53.270;7.956;2022-12-22T16:14:02;21.50;;;12.25;;
64297;SDS011;50639;53.270;7.956;2022-12-22T16:16:28;22.00;;;9.82;;
64297;SDS011;50639;53.270;7.956;2022-12-22T16:18:53;20.95;;;11.13;;
64297;SDS011;50639;53.270;7.956;2022-12-22T16:21:18;21.45;;;9.18;;
64297;SDS011;50639;53.270;7.956;2022-12-22T16:23:45;26.90;;;10.05;;
64297;SDS011;50639;53.270;7.956;2022-12-22T16:26:17;23.13;;;9.50;;